sensor_id;sensor_type;location;lat;lon;timestamp;P1;durP1;ratioP1;P2;durP2;ratioP2
16127;SDS011;8168;49.036;7.690;2022-10-31T00:00:54;10.53;;;5.97;;
16127;SDS011;8168;49.036;7.690;2022-10-31T00:03:25;9.37;;;5.77;;
16127;SDS011;8168;49.036;7.690;2022-10-31T00:05:56;10.30;;;6.37;;
16127;SDS011;8168;49.036;7.690;2022-10-31T00:08:27;9.03;;;6.10;;
16127;SDS011;8168;49.036;7.690;2022-10-31T00:10:57;6.20;;;4.30;;
16127;SDS011;8168;49.036;7.690;2022-10-31T00:13:28;8.23;;;4.93;;
16127;SDS011;8168;49.036;7.690;2022-10-31T00:15:59;6.60;;;4.07;;
16127;SDS011;8168;49.036;7.690;2022-10-31T00:18:29;3.67;;;2.37;;
16127;SDS011;8168;49.036;7.690;2022-10-31T00:21:03;4.03;;;2.97;;
16127;SDS011;8168;49.036;7.690;2022-10-31T00:23:33;5.43;;;3.70;;
16127;SDS011;8168;49.036;7.690;2022-10-31T00:26:04;9.43;;;5.50;;
16127;SDS011;8168;49.036;7.690;2022-10-31T00:28:36;9.07;;;4.97;;
16127;SDS011;8168;49.036;7.690;2022-10-31T00:31:08;4.50;;;3.43;;
16127;SDS011;8168;49.036;7.690;2022-10-31T00:33:40;5.83;;;3.63;;
16127;SDS011;8168;49.036;7.690;2022-10-31T00:36:14;4.80;;;3.80;;
16127;SDS011;8168;49.036;7.690;2022-10-31T00:38:47;5.37;;;3.43;;
16127;SDS011;8168;49.036;7.690;2022-10-31T00:41:18;7.03;;;3.60;;
16127;SDS011;8168;49.036;7.690;2022-10-31T00:43:48;5.43;;;3.20;;
16127;SDS011;8168;49.036;7.690;2022-10-31T00:46:19;3.43;;;3.13;;
16127;SDS011;8168;49.036;7.690;2022-10-31T00:48:50;6.13;;;2.53;;
16127;SDS011;8168;49.036;7.690;2022-10-31T00:51:20;7.00;;;3.83;;
16127;SDS011;8168;49.036;7.690;2022-10-31T00:53:51;5.00;;;3.13;;
16127;SDS011;8168;49.036;7.690;2022-10-31T00:56:21;5.77;;;4.30;;
16127;SDS011;8168;49.036;7.690;2022-10-31T00:58:52;7.53;;;5.13;;
16127;SDS011;8168;49.036;7.690;2022-10-31T01:01:22;6.93;;;4.30;;
16127;SDS011;8168;49.036;7.690;2022-10-31T01:03:53;5.90;;;3.77;;
16127;SDS011;8168;49.036;7.690;2022-10-31T01:06:24;8.20;;;4.10;;
16127;SDS011;8168;49.036;7.690;2022-10-31T01:08:54;7.00;;;4.70;;
16127;SDS011;8168;49.036;7.690;2022-10-31T01:11:25;5.27;;;3.90;;
16127;SDS011;8168;49.036;7.690;2022-10-31T01:13:55;7.30;;;3.70;;
16127;SDS011;8168;49.036;7.690;2022-10-31T01:16:26;4.90;;;3.43;;
16127;SDS011;8168;49.036;7.690;2022-10-31T01:18:59;5.73;;;3.87;;
16127;SDS011;8168;49.036;7.690;2022-10-31T01:21:29;4.67;;;3.70;;
16127;SDS011;8168;49.036;7.690;2022-10-31T01:24:00;3.73;;;3.07;;
16127;SDS011;8168;49.036;7.690;2022-10-31T01:26:32;3.87;;;2.90;;
16127;SDS011;8168;49.036;7.690;2022-10-31T01:29:04;5.13;;;4.03;;
16127;SDS011;8168;49.036;7.690;2022-10-31T01:31:37;6.47;;;3.10;;
16127;SDS011;8168;49.036;7.690;2022-10-31T01:34:10;6.07;;;3.10;;
16127;SDS011;8168;49.036;7.690;2022-10-31T01:36:44;5.57;;;3.80;;
16127;SDS011;8168;49.036;7.690;2022-10-31T01:39:17;3.47;;;3.17;;
16127;SDS011;8168;49.036;7.690;2022-10-31T01:41:50;2.80;;;2.53;;
16127;SDS011;8168;49.036;7.690;2022-10-31T01:49:39;3.90;;;2.60;;
16127;SDS011;8168;49.036;7.690;2022-10-31T01:57:31;3.03;;;2.60;;
16127;SDS011;8168;49.036;7.690;2022-10-31T02:00:04;3.67;;;2.23;;
16127;SDS011;8168;49.036;7.690;2022-10-31T02:02:38;3.10;;;2.33;;
16127;SDS011;8168;49.036;7.690;2022-10-31T02:05:10;3.93;;;2.80;;
16127;SDS011;8168;49.036;7.690;2022-10-31T02:07:54;2.87;;;2.60;;
16127;SDS011;8168;49.036;7.690;2022-10-31T02:10:29;4.30;;;2.70;;
16127;SDS011;8168;49.036;7.690;2022-10-31T02:13:03;10.40;;;3.33;;
16127;SDS011;8168;49.036;7.690;2022-10-31T02:15:36;4.87;;;2.83;;
16127;SDS011;8168;49.036;7.690;2022-10-31T02:18:08;4.53;;;2.80;;
16127;SDS011;8168;49.036;7.690;2022-10-31T02:20:41;4.13;;;3.00;;
16127;SDS011;8168;49.036;7.690;2022-10-31T02:34:34;6.63;;;4.17;;
16127;SDS011;8168;49.036;7.690;2022-10-31T02:40:33;5.97;;;4.03;;
16127;SDS011;8168;49.036;7.690;2022-10-31T02:43:14;3.83;;;3.20;;
16127;SDS011;8168;49.036;7.690;2022-10-31T02:46:03;5.83;;;2.47;;
16127;SDS011;8168;49.036;7.690;2022-10-31T02:48:44;3.73;;;2.40;;
16127;SDS011;8168;49.036;7.690;2022-10-31T02:51:16;4.77;;;2.43;;
16127;SDS011;8168;49.036;7.690;2022-10-31T02:53:48;2.00;;;1.90;;
16127;SDS011;8168;49.036;7.690;2022-10-31T02:56:19;3.17;;;2.20;;
16127;SDS011;8168;49.036;7.690;2022-10-31T02:58:57;2.47;;;2.20;;
16127;SDS011;8168;49.036;7.690;2022-10-31T03:01:45;2.13;;;1.93;;
16127;SDS011;8168;49.036;7.690;2022-10-31T03:15:40;4.23;;;2.77;;
16127;SDS011;8168;49.036;7.690;2022-10-31T03:18:16;2.70;;;2.50;;
16127;SDS011;8168;49.036;7.690;2022-10-31T03:20:50;4.67;;;2.47;;
16127;SDS011;8168;49.036;7.690;2022-10-31T03:23:26;2.77;;;2.47;;
16127;SDS011;8168;49.036;7.690;2022-10-31T03:25:58;3.53;;;3.00;;
16127;SDS011;8168;49.036;7.690;2022-10-31T03:28:37;3.77;;;2.40;;
16127;SDS011;8168;49.036;7.690;2022-10-31T03:31:18;4.27;;;2.30;;
16127;SDS011;8168;49.036;7.690;2022-10-31T03:33:51;4.97;;;2.17;;
16127;SDS011;8168;49.036;7.690;2022-10-31T03:36:23;5.27;;;2.10;;
16127;SDS011;8168;49.036;7.690;2022-10-31T03:38:56;3.17;;;2.10;;
16127;SDS011;8168;49.036;7.690;2022-10-31T03:41:31;2.30;;;2.10;;
16127;SDS011;8168;49.036;7.690;2022-10-31T03:44:07;2.63;;;1.90;;
16127;SDS011;8168;49.036;7.690;2022-10-31T03:46:40;3.57;;;2.47;;
16127;SDS011;8168;49.036;7.690;2022-10-31T03:49:12;3.63;;;2.40;;
16127;SDS011;8168;49.036;7.690;2022-10-31T03:51:46;2.50;;;2.00;;
16127;SDS011;8168;49.036;7.690;2022-10-31T03:54:25;5.13;;;2.60;;
16127;SDS011;8168;49.036;7.690;2022-10-31T03:57:25;4.60;;;1.97;;
16127;SDS011;8168;49.036;7.690;2022-10-31T04:00:10;3.87;;;2.10;;
16127;SDS011;8168;49.036;7.690;2022-10-31T04:02:59;4.80;;;2.87;;
16127;SDS011;8168;49.036;7.690;2022-10-31T04:05:36;7.03;;;2.47;;
16127;SDS011;8168;49.036;7.690;2022-10-31T04:08:08;3.23;;;2.00;;
16127;SDS011;8168;49.036;7.690;2022-10-31T04:10:43;4.43;;;2.40;;
16127;SDS011;8168;49.036;7.690;2022-10-31T04:13:24;5.43;;;2.37;;
16127;SDS011;8168;49.036;7.690;2022-10-31T04:15:59;4.10;;;2.80;;
16127;SDS011;8168;49.036;7.690;2022-10-31T04:18:30;3.80;;;2.60;;
16127;SDS011;8168;49.036;7.690;2022-10-31T04:21:04;4.00;;;2.93;;
16127;SDS011;8168;49.036;7.690;2022-10-31T04:23:36;6.63;;;2.27;;
16127;SDS011;8168;49.036;7.690;2022-10-31T04:26:07;3.37;;;2.00;;
16127;SDS011;8168;49.036;7.690;2022-10-31T04:28:40;3.80;;;2.80;;
16127;SDS011;8168;49.036;7.690;2022-10-31T04:31:11;7.43;;;2.57;;
16127;SDS011;8168;49.036;7.690;2022-10-31T04:33:42;8.03;;;2.73;;
16127;SDS011;8168;49.036;7.690;2022-10-31T04:36:13;4.97;;;2.87;;
16127;SDS011;8168;49.036;7.690;2022-10-31T04:38:43;4.27;;;3.07;;
16127;SDS011;8168;49.036;7.690;2022-10-31T04:41:14;4.77;;;3.13;;
16127;SDS011;8168;49.036;7.690;2022-10-31T04:43:45;4.87;;;3.40;;
16127;SDS011;8168;49.036;7.690;2022-10-31T04:46:15;8.00;;;3.63;;
16127;SDS011;8168;49.036;7.690;2022-10-31T04:48:46;6.70;;;3.20;;
16127;SDS011;8168;49.036;7.690;2022-10-31T04:51:16;4.23;;;3.00;;
16127;SDS011;8168;49.036;7.690;2022-10-31T04:53:47;4.37;;;3.00;;
16127;SDS011;8168;49.036;7.690;2022-10-31T04:56:18;4.37;;;2.80;;
16127;SDS011;8168;49.036;7.690;2022-10-31T04:58:48;6.70;;;3.13;;
16127;SDS011;8168;49.036;7.690;2022-10-31T05:01:19;5.23;;;3.43;;
16127;SDS011;8168;49.036;7.690;2022-10-31T05:03:50;5.00;;;3.03;;
16127;SDS011;8168;49.036;7.690;2022-10-31T05:06:20;5.13;;;3.30;;
16127;SDS011;8168;49.036;7.690;2022-10-31T05:08:51;4.83;;;2.70;;
16127;SDS011;8168;49.036;7.690;2022-10-31T05:11:22;5.80;;;2.40;;
16127;SDS011;8168;49.036;7.690;2022-10-31T05:13:52;3.10;;;2.30;;
16127;SDS011;8168;49.036;7.690;2022-10-31T05:16:23;3.17;;;2.50;;
16127;SDS011;8168;49.036;7.690;2022-10-31T05:18:54;3.37;;;2.63;;
16127;SDS011;8168;49.036;7.690;2022-10-31T05:21:24;5.43;;;2.60;;
16127;SDS011;8168;49.036;7.690;2022-10-31T05:23:55;3.53;;;2.57;;
16127;SDS011;8168;49.036;7.690;2022-10-31T05:26:25;4.57;;;2.47;;
16127;SDS011;8168;49.036;7.690;2022-10-31T05:28:56;4.33;;;2.80;;
16127;SDS011;8168;49.036;7.690;2022-10-31T05:31:26;6.07;;;2.80;;
16127;SDS011;8168;49.036;7.690;2022-10-31T05:33:57;5.97;;;2.70;;
16127;SDS011;8168;49.036;7.690;2022-10-31T05:36:28;6.03;;;2.97;;
16127;SDS011;8168;49.036;7.690;2022-10-31T05:38:58;3.53;;;2.80;;
16127;SDS011;8168;49.036;7.690;2022-10-31T05:41:29;3.80;;;2.50;;
16127;SDS011;8168;49.036;7.690;2022-10-31T05:43:59;5.63;;;2.57;;
16127;SDS011;8168;49.036;7.690;2022-10-31T05:46:30;4.47;;;2.53;;
16127;SDS011;8168;49.036;7.690;2022-10-31T05:49:01;5.80;;;2.80;;
16127;SDS011;8168;49.036;7.690;2022-10-31T05:51:31;6.03;;;3.37;;
16127;SDS011;8168;49.036;7.690;2022-10-31T05:54:02;7.10;;;3.40;;
16127;SDS011;8168;49.036;7.690;2022-10-31T05:56:33;3.83;;;2.87;;
16127;SDS011;8168;49.036;7.690;2022-10-31T05:59:03;4.83;;;2.93;;
16127;SDS011;8168;49.036;7.690;2022-10-31T06:01:34;3.53;;;2.70;;
16127;SDS011;8168;49.036;7.690;2022-10-31T06:04:04;6.13;;;2.60;;
16127;SDS011;8168;49.036;7.690;2022-10-31T06:06:35;3.90;;;3.13;;
16127;SDS011;8168;49.036;7.690;2022-10-31T06:09:05;4.10;;;2.90;;
16127;SDS011;8168;49.036;7.690;2022-10-31T06:11:36;4.07;;;2.77;;
16127;SDS011;8168;49.036;7.690;2022-10-31T06:14:07;4.07;;;2.50;;
16127;SDS011;8168;49.036;7.690;2022-10-31T06:16:37;4.77;;;2.80;;
16127;SDS011;8168;49.036;7.690;2022-10-31T06:19:08;6.50;;;2.27;;
16127;SDS011;8168;49.036;7.690;2022-10-31T06:21:39;4.30;;;2.13;;
16127;SDS011;8168;49.036;7.690;2022-10-31T06:24:10;5.60;;;2.80;;
16127;SDS011;8168;49.036;7.690;2022-10-31T06:26:40;4.07;;;3.03;;
16127;SDS011;8168;49.036;7.690;2022-10-31T06:29:11;5.50;;;3.10;;
16127;SDS011;8168;49.036;7.690;2022-10-31T06:31:42;6.37;;;2.70;;
16127;SDS011;8168;49.036;7.690;2022-10-31T06:34:12;4.03;;;3.43;;
16127;SDS011;8168;49.036;7.690;2022-10-31T06:36:43;4.40;;;2.87;;
16127;SDS011;8168;49.036;7.690;2022-10-31T06:39:15;4.60;;;3.37;;
16127;SDS011;8168;49.036;7.690;2022-10-31T06:41:47;6.00;;;3.90;;
16127;SDS011;8168;49.036;7.690;2022-10-31T06:44:18;5.70;;;3.03;;
16127;SDS011;8168;49.036;7.690;2022-10-31T06:46:48;4.67;;;3.73;;
16127;SDS011;8168;49.036;7.690;2022-10-31T06:49:19;8.50;;;4.80;;
16127;SDS011;8168;49.036;7.690;2022-10-31T06:51:50;5.33;;;3.87;;
16127;SDS011;8168;49.036;7.690;2022-10-31T06:54:20;9.97;;;5.07;;
16127;SDS011;8168;49.036;7.690;2022-10-31T06:56:52;10.13;;;5.07;;
16127;SDS011;8168;49.036;7.690;2022-10-31T06:59:22;8.80;;;4.43;;
16127;SDS011;8168;49.036;7.690;2022-10-31T07:01:54;8.77;;;4.60;;
16127;SDS011;8168;49.036;7.690;2022-10-31T07:04:24;5.37;;;3.80;;
16127;SDS011;8168;49.036;7.690;2022-10-31T07:06:55;6.13;;;4.60;;
16127;SDS011;8168;49.036;7.690;2022-10-31T07:09:26;6.67;;;4.43;;
16127;SDS011;8168;49.036;7.690;2022-10-31T07:11:56;10.63;;;5.00;;
16127;SDS011;8168;49.036;7.690;2022-10-31T07:14:27;8.10;;;5.00;;
16127;SDS011;8168;49.036;7.690;2022-10-31T07:16:57;8.00;;;5.90;;
16127;SDS011;8168;49.036;7.690;2022-10-31T07:19:28;7.40;;;5.20;;
16127;SDS011;8168;49.036;7.690;2022-10-31T07:21:59;9.27;;;5.87;;
16127;SDS011;8168;49.036;7.690;2022-10-31T07:24:29;7.27;;;5.70;;
16127;SDS011;8168;49.036;7.690;2022-10-31T07:27:00;10.30;;;5.77;;
16127;SDS011;8168;49.036;7.690;2022-10-31T07:29:31;9.23;;;6.27;;
16127;SDS011;8168;49.036;7.690;2022-10-31T07:32:01;12.23;;;6.17;;
16127;SDS011;8168;49.036;7.690;2022-10-31T07:34:32;10.23;;;5.47;;
16127;SDS011;8168;49.036;7.690;2022-10-31T07:37:02;7.73;;;5.60;;
16127;SDS011;8168;49.036;7.690;2022-10-31T07:39:33;8.93;;;5.10;;
16127;SDS011;8168;49.036;7.690;2022-10-31T07:42:04;11.40;;;5.93;;
16127;SDS011;8168;49.036;7.690;2022-10-31T07:44:34;9.13;;;5.77;;
16127;SDS011;8168;49.036;7.690;2022-10-31T07:47:05;9.00;;;5.83;;
16127;SDS011;8168;49.036;7.690;2022-10-31T07:49:35;7.67;;;5.20;;
16127;SDS011;8168;49.036;7.690;2022-10-31T07:52:06;7.50;;;5.23;;
16127;SDS011;8168;49.036;7.690;2022-10-31T07:54:37;9.70;;;4.90;;
16127;SDS011;8168;49.036;7.690;2022-10-31T07:57:07;6.73;;;5.27;;
16127;SDS011;8168;49.036;7.690;2022-10-31T07:59:38;6.73;;;5.00;;
16127;SDS011;8168;49.036;7.690;2022-10-31T08:02:08;7.20;;;4.87;;
16127;SDS011;8168;49.036;7.690;2022-10-31T08:04:39;7.53;;;5.03;;
16127;SDS011;8168;49.036;7.690;2022-10-31T08:07:10;10.57;;;5.37;;
16127;SDS011;8168;49.036;7.690;2022-10-31T08:09:40;10.70;;;5.53;;
16127;SDS011;8168;49.036;7.690;2022-10-31T08:12:11;7.93;;;5.30;;
16127;SDS011;8168;49.036;7.690;2022-10-31T08:14:41;9.37;;;5.43;;
16127;SDS011;8168;49.036;7.690;2022-10-31T08:17:12;7.37;;;5.20;;
16127;SDS011;8168;49.036;7.690;2022-10-31T08:19:43;8.10;;;5.50;;
16127;SDS011;8168;49.036;7.690;2022-10-31T08:22:13;8.50;;;5.20;;
16127;SDS011;8168;49.036;7.690;2022-10-31T08:24:44;7.83;;;6.10;;
16127;SDS011;8168;49.036;7.690;2022-10-31T08:27:14;12.77;;;6.47;;
16127;SDS011;8168;49.036;7.690;2022-10-31T08:29:45;8.63;;;6.30;;
16127;SDS011;8168;49.036;7.690;2022-10-31T08:32:16;12.87;;;7.33;;
16127;SDS011;8168;49.036;7.690;2022-10-31T08:34:46;16.33;;;8.10;;
16127;SDS011;8168;49.036;7.690;2022-10-31T08:37:17;8.60;;;6.43;;
16127;SDS011;8168;49.036;7.690;2022-10-31T08:39:49;11.50;;;6.63;;
16127;SDS011;8168;49.036;7.690;2022-10-31T08:42:20;8.97;;;6.00;;
16127;SDS011;8168;49.036;7.690;2022-10-31T08:44:51;9.23;;;5.93;;
16127;SDS011;8168;49.036;7.690;2022-10-31T08:47:21;12.87;;;6.97;;
16127;SDS011;8168;49.036;7.690;2022-10-31T08:49:52;9.80;;;6.27;;
16127;SDS011;8168;49.036;7.690;2022-10-31T08:52:23;9.67;;;6.10;;
16127;SDS011;8168;49.036;7.690;2022-10-31T08:54:55;12.87;;;6.80;;
16127;SDS011;8168;49.036;7.690;2022-10-31T08:57:25;12.63;;;6.13;;
16127;SDS011;8168;49.036;7.690;2022-10-31T08:59:56;11.10;;;5.77;;
16127;SDS011;8168;49.036;7.690;2022-10-31T09:02:26;8.10;;;6.20;;
16127;SDS011;8168;49.036;7.690;2022-10-31T09:04:57;10.20;;;6.20;;
16127;SDS011;8168;49.036;7.690;2022-10-31T09:07:28;9.97;;;7.20;;
16127;SDS011;8168;49.036;7.690;2022-10-31T09:09:58;11.77;;;8.70;;
16127;SDS011;8168;49.036;7.690;2022-10-31T09:12:29;14.80;;;9.57;;
16127;SDS011;8168;49.036;7.690;2022-10-31T09:14:59;13.03;;;8.67;;
16127;SDS011;8168;49.036;7.690;2022-10-31T09:17:31;9.87;;;6.90;;
16127;SDS011;8168;49.036;7.690;2022-10-31T09:20:02;13.33;;;7.57;;
16127;SDS011;8168;49.036;7.690;2022-10-31T09:22:33;14.37;;;7.30;;
16127;SDS011;8168;49.036;7.690;2022-10-31T09:25:03;9.60;;;6.33;;
16127;SDS011;8168;49.036;7.690;2022-10-31T09:27:34;10.07;;;6.30;;
16127;SDS011;8168;49.036;7.690;2022-10-31T09:30:05;14.00;;;6.10;;
16127;SDS011;8168;49.036;7.690;2022-10-31T09:32:36;8.50;;;6.03;;
16127;SDS011;8168;49.036;7.690;2022-10-31T09:35:07;11.23;;;7.03;;
16127;SDS011;8168;49.036;7.690;2022-10-31T09:37:38;9.20;;;6.00;;
16127;SDS011;8168;49.036;7.690;2022-10-31T09:40:08;8.50;;;6.33;;
16127;SDS011;8168;49.036;7.690;2022-10-31T09:42:46;8.33;;;6.77;;
16127;SDS011;8168;49.036;7.690;2022-10-31T09:51:20;13.03;;;7.23;;
16127;SDS011;8168;49.036;7.690;2022-10-31T09:54:04;6.60;;;4.80;;
16127;SDS011;8168;49.036;7.690;2022-10-31T09:56:42;5.77;;;5.17;;
16127;SDS011;8168;49.036;7.690;2022-10-31T09:59:56;7.50;;;4.30;;
16127;SDS011;8168;49.036;7.690;2022-10-31T10:02:32;4.60;;;3.60;;
16127;SDS011;8168;49.036;7.690;2022-10-31T10:05:03;6.50;;;4.00;;
16127;SDS011;8168;49.036;7.690;2022-10-31T10:19:57;6.17;;;3.40;;
16127;SDS011;8168;49.036;7.690;2022-10-31T10:22:29;8.57;;;4.77;;
16127;SDS011;8168;49.036;7.690;2022-10-31T10:25:23;6.30;;;4.47;;
16127;SDS011;8168;49.036;7.690;2022-10-31T10:30:42;10.43;;;6.13;;
16127;SDS011;8168;49.036;7.690;2022-10-31T10:33:26;7.03;;;4.00;;
16127;SDS011;8168;49.036;7.690;2022-10-31T10:36:04;5.60;;;4.17;;
16127;SDS011;8168;49.036;7.690;2022-10-31T10:38:49;8.37;;;5.60;;
16127;SDS011;8168;49.036;7.690;2022-10-31T10:41:22;12.07;;;5.30;;
16127;SDS011;8168;49.036;7.690;2022-10-31T10:43:54;9.90;;;5.30;;
16127;SDS011;8168;49.036;7.690;2022-10-31T10:46:41;11.17;;;5.60;;
16127;SDS011;8168;49.036;7.690;2022-10-31T10:49:42;8.83;;;4.80;;
16127;SDS011;8168;49.036;7.690;2022-10-31T10:52:33;7.13;;;5.43;;
16127;SDS011;8168;49.036;7.690;2022-10-31T10:57:53;10.13;;;5.20;;
16127;SDS011;8168;49.036;7.690;2022-10-31T11:00:46;10.33;;;7.00;;
16127;SDS011;8168;49.036;7.690;2022-10-31T11:03:17;6.97;;;5.67;;
16127;SDS011;8168;49.036;7.690;2022-10-31T11:05:50;6.27;;;5.50;;
16127;SDS011;8168;49.036;7.690;2022-10-31T11:08:28;10.17;;;4.63;;
16127;SDS011;8168;49.036;7.690;2022-10-31T11:11:08;9.37;;;4.40;;
16127;SDS011;8168;49.036;7.690;2022-10-31T11:14:04;5.50;;;3.77;;
16127;SDS011;8168;49.036;7.690;2022-10-31T11:16:43;10.30;;;4.27;;
16127;SDS011;8168;49.036;7.690;2022-10-31T11:19:24;10.97;;;3.67;;
16127;SDS011;8168;49.036;7.690;2022-10-31T11:22:05;5.50;;;3.73;;
16127;SDS011;8168;49.036;7.690;2022-10-31T11:24:40;8.03;;;4.13;;
16127;SDS011;8168;49.036;7.690;2022-10-31T11:29:50;4.10;;;3.50;;
16127;SDS011;8168;49.036;7.690;2022-10-31T11:32:21;5.03;;;3.37;;
16127;SDS011;8168;49.036;7.690;2022-10-31T11:34:54;5.83;;;3.10;;
16127;SDS011;8168;49.036;7.690;2022-10-31T11:37:32;8.37;;;3.40;;
16127;SDS011;8168;49.036;7.690;2022-10-31T11:40:05;8.07;;;3.43;;
16127;SDS011;8168;49.036;7.690;2022-10-31T11:42:40;5.23;;;3.23;;
16127;SDS011;8168;49.036;7.690;2022-10-31T11:45:16;6.60;;;4.40;;
16127;SDS011;8168;49.036;7.690;2022-10-31T11:47:49;6.37;;;3.33;;
16127;SDS011;8168;49.036;7.690;2022-10-31T11:50:26;8.30;;;3.80;;
16127;SDS011;8168;49.036;7.690;2022-10-31T11:53:01;6.27;;;3.73;;
16127;SDS011;8168;49.036;7.690;2022-10-31T11:55:34;4.03;;;3.63;;
16127;SDS011;8168;49.036;7.690;2022-10-31T11:58:20;7.60;;;3.53;;
16127;SDS011;8168;49.036;7.690;2022-10-31T12:00:55;5.00;;;3.63;;
16127;SDS011;8168;49.036;7.690;2022-10-31T12:03:32;5.03;;;4.03;;
16127;SDS011;8168;49.036;7.690;2022-10-31T12:06:28;7.97;;;4.17;;
16127;SDS011;8168;49.036;7.690;2022-10-31T12:09:17;7.50;;;3.73;;
16127;SDS011;8168;49.036;7.690;2022-10-31T12:29:33;4.60;;;2.60;;
16127;SDS011;8168;49.036;7.690;2022-10-31T12:32:40;5.90;;;2.77;;
16127;SDS011;8168;49.036;7.690;2022-10-31T12:58:52;4.67;;;2.77;;
16127;SDS011;8168;49.036;7.690;2022-10-31T13:04:40;4.83;;;2.93;;
16127;SDS011;8168;49.036;7.690;2022-10-31T13:08:03;4.77;;;2.90;;
16127;SDS011;8168;49.036;7.690;2022-10-31T13:10:47;8.60;;;2.83;;
16127;SDS011;8168;49.036;7.690;2022-10-31T13:18:47;3.47;;;3.13;;
16127;SDS011;8168;49.036;7.690;2022-10-31T13:22:12;3.63;;;2.40;;
16127;SDS011;8168;49.036;7.690;2022-10-31T13:24:36;5.93;;;2.73;;
16127;SDS011;8168;49.036;7.690;2022-10-31T13:27:30;3.83;;;2.90;;
16127;SDS011;8168;49.036;7.690;2022-10-31T13:36:05;6.33;;;3.10;;
16127;SDS011;8168;49.036;7.690;2022-10-31T13:44:35;4.67;;;3.13;;
16127;SDS011;8168;49.036;7.690;2022-10-31T13:47:20;5.03;;;3.23;;
16127;SDS011;8168;49.036;7.690;2022-10-31T13:50:29;7.00;;;4.50;;
16127;SDS011;8168;49.036;7.690;2022-10-31T13:53:09;4.07;;;3.30;;
16127;SDS011;8168;49.036;7.690;2022-10-31T13:56:34;6.90;;;3.27;;
16127;SDS011;8168;49.036;7.690;2022-10-31T14:01:27;11.00;;;5.20;;
16127;SDS011;8168;49.036;7.690;2022-10-31T14:06:44;8.50;;;5.23;;
16127;SDS011;8168;49.036;7.690;2022-10-31T14:12:46;7.40;;;4.00;;
16127;SDS011;8168;49.036;7.690;2022-10-31T14:15:20;5.80;;;4.20;;
16127;SDS011;8168;49.036;7.690;2022-10-31T14:26:07;6.90;;;3.53;;
16127;SDS011;8168;49.036;7.690;2022-10-31T14:29:03;14.53;;;9.53;;
16127;SDS011;8168;49.036;7.690;2022-10-31T14:31:57;11.73;;;6.37;;
16127;SDS011;8168;49.036;7.690;2022-10-31T14:48:50;11.70;;;5.40;;
16127;SDS011;8168;49.036;7.690;2022-10-31T14:51:24;7.00;;;4.80;;
16127;SDS011;8168;49.036;7.690;2022-10-31T14:54:01;20.63;;;12.47;;
16127;SDS011;8168;49.036;7.690;2022-10-31T14:56:34;15.20;;;6.17;;
16127;SDS011;8168;49.036;7.690;2022-10-31T14:59:11;18.37;;;6.17;;
16127;SDS011;8168;49.036;7.690;2022-10-31T15:01:56;12.53;;;6.13;;
16127;SDS011;8168;49.036;7.690;2022-10-31T15:04:37;8.53;;;5.47;;
16127;SDS011;8168;49.036;7.690;2022-10-31T15:07:14;9.57;;;5.37;;
16127;SDS011;8168;49.036;7.690;2022-10-31T15:10:36;12.27;;;7.93;;
16127;SDS011;8168;49.036;7.690;2022-10-31T15:12:53;6.30;;;4.33;;
16127;SDS011;8168;49.036;7.690;2022-10-31T15:15:24;10.53;;;6.27;;
16127;SDS011;8168;49.036;7.690;2022-10-31T15:17:57;11.03;;;6.20;;
16127;SDS011;8168;49.036;7.690;2022-10-31T15:20:32;6.27;;;4.43;;
16127;SDS011;8168;49.036;7.690;2022-10-31T15:23:41;19.77;;;6.97;;
16127;SDS011;8168;49.036;7.690;2022-10-31T15:26:05;12.87;;;6.67;;
16127;SDS011;8168;49.036;7.690;2022-10-31T15:28:35;8.57;;;4.63;;
16127;SDS011;8168;49.036;7.690;2022-10-31T15:31:12;7.20;;;4.23;;
16127;SDS011;8168;49.036;7.690;2022-10-31T15:33:46;10.27;;;5.73;;
16127;SDS011;8168;49.036;7.690;2022-10-31T15:36:23;8.90;;;4.53;;
16127;SDS011;8168;49.036;7.690;2022-10-31T15:38:56;8.47;;;4.60;;
16127;SDS011;8168;49.036;7.690;2022-10-31T15:44:23;9.43;;;6.57;;
16127;SDS011;8168;49.036;7.690;2022-10-31T15:47:05;11.47;;;6.07;;
16127;SDS011;8168;49.036;7.690;2022-10-31T15:49:53;16.57;;;12.10;;
16127;SDS011;8168;49.036;7.690;2022-10-31T15:55:18;19.90;;;14.63;;
16127;SDS011;8168;49.036;7.690;2022-10-31T15:57:57;12.60;;;6.60;;
16127;SDS011;8168;49.036;7.690;2022-10-31T16:00:31;46.73;;;26.60;;
16127;SDS011;8168;49.036;7.690;2022-10-31T16:06:00;33.10;;;21.37;;
16127;SDS011;8168;49.036;7.690;2022-10-31T16:08:34;18.30;;;13.67;;
16127;SDS011;8168;49.036;7.690;2022-10-31T16:13:37;17.97;;;12.10;;
16127;SDS011;8168;49.036;7.690;2022-10-31T16:16:12;15.03;;;10.93;;
16127;SDS011;8168;49.036;7.690;2022-10-31T16:18:44;20.23;;;11.20;;
16127;SDS011;8168;49.036;7.690;2022-10-31T16:21:15;23.90;;;15.33;;
16127;SDS011;8168;49.036;7.690;2022-10-31T16:23:54;12.27;;;8.27;;
16127;SDS011;8168;49.036;7.690;2022-10-31T16:26:29;20.93;;;10.97;;
16127;SDS011;8168;49.036;7.690;2022-10-31T16:29:00;14.57;;;10.67;;
16127;SDS011;8168;49.036;7.690;2022-10-31T16:31:36;33.60;;;23.30;;
16127;SDS011;8168;49.036;7.690;2022-10-31T16:34:14;29.40;;;21.30;;
16127;SDS011;8168;49.036;7.690;2022-10-31T16:36:54;19.80;;;11.13;;
16127;SDS011;8168;49.036;7.690;2022-10-31T16:39:25;20.17;;;9.87;;
16127;SDS011;8168;49.036;7.690;2022-10-31T16:41:55;12.77;;;8.93;;
16127;SDS011;8168;49.036;7.690;2022-10-31T16:44:26;42.70;;;29.23;;
16127;SDS011;8168;49.036;7.690;2022-10-31T16:49:38;27.33;;;15.57;;
16127;SDS011;8168;49.036;7.690;2022-10-31T16:52:09;13.83;;;11.37;;
16127;SDS011;8168;49.036;7.690;2022-10-31T16:54:40;28.07;;;15.33;;
16127;SDS011;8168;49.036;7.690;2022-10-31T16:57:12;25.83;;;15.83;;
16127;SDS011;8168;49.036;7.690;2022-10-31T16:59:46;15.60;;;10.57;;
16127;SDS011;8168;49.036;7.690;2022-10-31T17:02:21;25.70;;;16.07;;
16127;SDS011;8168;49.036;7.690;2022-10-31T17:04:51;20.13;;;13.57;;
16127;SDS011;8168;49.036;7.690;2022-10-31T17:07:22;22.43;;;14.17;;
16127;SDS011;8168;49.036;7.690;2022-10-31T17:09:53;24.03;;;16.90;;
16127;SDS011;8168;49.036;7.690;2022-10-31T17:12:24;12.33;;;8.33;;
16127;SDS011;8168;49.036;7.690;2022-10-31T17:14:56;23.73;;;13.30;;
16127;SDS011;8168;49.036;7.690;2022-10-31T17:17:26;17.20;;;9.90;;
16127;SDS011;8168;49.036;7.690;2022-10-31T17:19:57;23.07;;;16.30;;
16127;SDS011;8168;49.036;7.690;2022-10-31T17:22:28;14.70;;;10.47;;
16127;SDS011;8168;49.036;7.690;2022-10-31T17:24:58;8.30;;;6.03;;
16127;SDS011;8168;49.036;7.690;2022-10-31T17:27:29;10.57;;;5.70;;
16127;SDS011;8168;49.036;7.690;2022-10-31T17:30:00;11.37;;;6.33;;
16127;SDS011;8168;49.036;7.690;2022-10-31T17:32:30;17.73;;;9.50;;
16127;SDS011;8168;49.036;7.690;2022-10-31T17:35:01;18.30;;;8.30;;
16127;SDS011;8168;49.036;7.690;2022-10-31T17:37:31;12.17;;;8.93;;
16127;SDS011;8168;49.036;7.690;2022-10-31T17:40:02;24.57;;;16.03;;
16127;SDS011;8168;49.036;7.690;2022-10-31T17:42:33;21.07;;;14.10;;
16127;SDS011;8168;49.036;7.690;2022-10-31T17:45:04;17.43;;;9.07;;
16127;SDS011;8168;49.036;7.690;2022-10-31T17:47:36;17.47;;;11.60;;
16127;SDS011;8168;49.036;7.690;2022-10-31T17:50:07;20.07;;;14.63;;
16127;SDS011;8168;49.036;7.690;2022-10-31T17:52:38;16.00;;;10.83;;
16127;SDS011;8168;49.036;7.690;2022-10-31T17:55:09;11.97;;;9.70;;
16127;SDS011;8168;49.036;7.690;2022-10-31T17:57:40;13.30;;;8.63;;
16127;SDS011;8168;49.036;7.690;2022-10-31T18:00:17;10.63;;;8.60;;
16127;SDS011;8168;49.036;7.690;2022-10-31T18:02:53;8.93;;;6.10;;
16127;SDS011;8168;49.036;7.690;2022-10-31T18:05:24;13.43;;;9.87;;
16127;SDS011;8168;49.036;7.690;2022-10-31T18:07:54;9.83;;;8.37;;
16127;SDS011;8168;49.036;7.690;2022-10-31T18:10:25;13.27;;;9.73;;
16127;SDS011;8168;49.036;7.690;2022-10-31T18:12:56;14.87;;;9.40;;
16127;SDS011;8168;49.036;7.690;2022-10-31T18:15:27;15.50;;;11.23;;
16127;SDS011;8168;49.036;7.690;2022-10-31T18:17:57;13.80;;;10.73;;
16127;SDS011;8168;49.036;7.690;2022-10-31T18:20:28;13.73;;;10.27;;
16127;SDS011;8168;49.036;7.690;2022-10-31T18:22:59;15.93;;;11.93;;
16127;SDS011;8168;49.036;7.690;2022-10-31T18:25:29;14.30;;;9.97;;
16127;SDS011;8168;49.036;7.690;2022-10-31T18:28:00;9.53;;;7.03;;